Timeline UpdatesTrip UpdatesNews PostsPvt PostsTravel TipsAdmin PostsConv PostsFollowed PostsChat RequestsBlog PostsPNR Posts

Disclaimer
Search
 
 
Fri Apr 18, 2014 11:05:11 ISTHomeTrainsΣChainsAtlasPNRForumGalleryNewsFAQTripsMembersLoginFeedback
No Recent News for this Train
Other Trains in the News **new
Latest...
⇐ Return Journey: Train# 18236

18235/Bhopal Bilaspur Express

Oct 02 2013 (5:25PM)
Change Departure Station:
Change Arrival Station:
Post a Train Travel TipPost a Train Travel Tip **new
Post a Comment/Question/Picture/VideoPost a Comment/Question/Picture/Video
Pantry/Catering
???
RSA - Rake Sharing
Rake/Coach Composition
.LOCO- GEN GEN GEN GEN FC1 S1 S2 S3 GEN GS GEN SLR SL(slip).; Entry# 311744.; Author: Shubham.
Loco
Loco In-Charge :- BIA WAM-4
News    PNR    Forum    Time-Table    Availability    Fare Chart    Map    Arr/Dep History    Trips    Gallery    ΣChains    X/O    Timeline    
Travel Time: 19h 22m    64 halts    Distance: 692 km    Avg Speed: 35 km/hr
Type: Mail/Express
Zone: SECR/South East Central
Departs @ 08:23 (Avg 18m late)
Platform# 1
SMTWTFS
DewanGanj/DWG 
Arrives @ 03:45 +1 night (Avg 4m late)
Platform# 7
SMTWTFS
Bilaspur Junction/BSP 

64 halts. 84 intermediate Stations between DewanGanj and Bilaspur Junction

Show ALL intermediate Stations  Show Old Time-Table

#CodeStation NameX/OArrivesAvgDepartsAvgHaltPFDay#KmSpeedElevZoneAddress
1BPLBhopal Junction (6)  -08:00+251-27.679497mWCRBhopal, Madhya Pradesh
2DWG»DewanGanj (3)»X  08:21+1708:23+182m110.062444mWCRRaisen, Madhya Pradesh
3SMTSalamatpur (3)X  08:32+1908:34+212m--19.349437mWCRRaisen, Madhya Pradesh
4SCISanchi (2)X  08:43+2008:45+212m2116.651428mWCRRaisen, Madhya Pradesh
5BHSVidisha (3)XO  08:56+2308:58+242m1126.084432mWCRVidisha, Madhya Pradesh
6GLGGulabhGanj (3)X  09:13+2709:15+272m1147.069432mWCRVidisha, Madhya Pradesh
7BAQGanj Basoda (4)  09:31+2709:33+272m1165.369416mWCRVidisha, Madhya Pradesh
8KAHKalhar (3)  09:50+2709:52+272m--185.053409mWCRSagar, Madhya Pradesh
9MABAMandi Bamora (3)X  10:02+2810:04+282m1193.829413mWCRState Highway 14, Madhya Pradesh
10BINABina Junction (5)X  10:40+1110:50+1010m31111.027414mWCRJn Pt - KATNI/GUNA/ BPL/JHS, Madhya Pradesh
11BJQBaghora (2)  11:12+2811:14+302m21121.159420mWCRSagar, Madhya Pradesh
12KYEKhurai (5)X  11:26+3111:28+332m--1132.959439mWCRKhurai, Madhya Pradesh
13SMRRSumreriXO  11:37+3311:39+342m--1141.739443mWCRKhurai, Madhya Pradesh
14JRKJeruwa Khera  11:53+3111:55+332m--1150.850498mWCRJeruwakhera, Madhya Pradesh
15ISHIsarwara  12:06+3212:08+352m--1159.937487mWCRSagar, Madhya Pradesh
16NOINariaoliX  12:20+3312:22+362m--1167.439485mWCRSagar, Madhya Pradesh
17SGOSaugor (2)  12:50+3513:00+3610m--1185.724519mWCRMP 470001Madhya pradesh, Madhya Pradesh
18MKRNMakronia  13:18+2913:20+312m--1192.872527mWCRRajakhedi, Madhya Pradesh
19LDALidhora Khurd  13:26+3413:28+352m--1200.067496mWCRSagar, Madhya Pradesh
20GWGirwarX  13:37+3713:42+345m--1210.064472mWCRSagar, Madhya Pradesh
21GAJGaneshGanjXO  13:55+3814:00+415m--1223.839419mWCRPatharia, Madhya Pradesh
22PHAPathariaX  14:20+3614:25+355m--1236.736382mWCRState Highway 14, Madhya Pradesh
23ANAAslanaXO  14:48+2714:50+302m--1250.521367mWCRDamoh, Madhya Pradesh
24DMODamoh (2)  15:25+1615:35+1810m--1262.861365mWCRDamoh, Madhya Pradesh
25KYXKarhiya BhadeliX  15:43+2115:45+212m--1270.933365mWCRGhatera, Madhya Pradesh
26BNUBandakpurX  15:58+1616:00+172m--1278.264352mWCRBandakpur Rd, Madhya Pradesh
27GEAGhatera  16:10+1716:15+155m--1288.854332mWCRBandakpur Rd, Madhya Pradesh
28SAOSagoni  16:33+1316:35+142m--1305.032358mWCRGhatera, Madhya Pradesh
29SYASalaia  17:09+617:11+92m--1323.152438mWCRGhatera, Madhya Pradesh
30BQQBakhleta  17:23+817:25+82m--1333.539429mWCRKatni, Madhya Pradesh
31REIRithi  17:38+517:40+72m--1341.955427mWCRKatni, Madhya Pradesh
32HDUHardua  17:56+617:58+72m--1356.642394mWCRKatni, Madhya Pradesh
33KMZKatni Murwara  18:20+418:40+320m--1371.922385mWCRMP 483504 ?, Madhya Pradesh
34JLWJhalwara  19:09+1519:11+162m--1382.770406mSECRNational Highway 78, Madhya Pradesh
35RPDRupaund  19:21+1719:23+172m--1394.435417mSECRJhalwara, Madhya Pradesh
36VYKVilayatkalan RoadX  19:31+1719:33+172m--1399.195425mSECRJhalwara, Madhya Pradesh
37CHDChandia Road (1)  19:41+1819:43+182m11411.859406mSECRNational Highway 78, Madhya Pradesh
38LOALorha  19:52+1719:54+172m--1420.655464mSECRUmaria, Madhya Pradesh
39UMRUmaria (3)  20:05+1620:10+155m--1430.895469mSECRUmaria, Madhya Pradesh
40KKIKarkeliX  20:18+1920:20+192m--1443.460471mSECRUmaria, Madhya Pradesh
41NRZBNowrozabad  20:30+1920:32+192m--1453.462458mSECRNational Highway 78, Madhya Pradesh
42BRSBirsinghpurX  20:39+1920:41+192m--1460.670461mSECRPali, Madhya Pradesh
43GGTGhunghuti  20:55+2520:57+252m--1476.969522mSECRNational Highway 78, Madhya Pradesh
44BDWABandhwa ParaX  21:08+2521:10+252m--1489.417474mSECRNational Highway 78, Madhya Pradesh
45SDLShahdol  21:40+921:50+1210m--1498.059466mSECR, Madhya Pradesh
46SNGPSinghpur  21:56+1521:58+152m--1503.968502mSECRBurhar, Madhya Pradesh
47BUHBurhar  22:10+1622:12+162m--1517.565494mSECRBurhar, Madhya Pradesh
48AALAmlaiX  22:20+1622:22+162m--1526.242495mSECRAnuppur, Madhya Pradesh
49APRAnuppur Junction (3)  22:40+1223:05+2025m--1538.977487mSECRAnuppur, Madhya Pradesh
50CLFChhulhaX  23:09+2623:11+402m--1544.075488mSECRMauhari, Madhya Pradesh
51JTIJaithariX  23:18+4323:20+492m--1552.880522mSECRAnuppur, Madhya Pradesh
52NIQNigaura  23:28+5023:30+542m--1563.457547mSECRAnuppur, Madhya Pradesh
53VKRVenkatnagar  23:38+5423:40+572m--1571.049549mSECRPendra Rd, Madhya Pradesh
54HRBHarri  23:53+5523:55+1:002m--1581.625595mSECRVenkatnagar, Madhya Pradesh
55PNDPendra RoadX  00:15+5000:25+4610m--2590.076620mSECRBilaspur district, Chhattisgarh
56SBRASarbahara  00:29+5100:31+542m--2595.155589mSECRBilaspur, Chhattisgarh
57KOIKhodriX  00:38+5600:40+562m--2601.538558mSECRBilaspur, Chhattisgarh
58BHTKBhanwar TonkX  00:58+5400:59+551m--2613.044455mSECRKhodri, Chhattisgarh
59KGSKhongsara  01:16+5301:18+552m--2625.564378mSECRBhanwar, Chhattisgarh
60TGQTenganmada  01:26+5601:28+572m--2634.074367mSECRBelgahna, Chhattisgarh
61BIGBelgahna  01:36+5801:38+592m--2643.865327mSECRBilaspur, Chhattisgarh
62SLKRSalkaroad  01:45+1:0001:47+592m--2651.470333mSECRGhutku, Chhattisgarh
63KGBKargi Road  01:54+5901:56+592m--2659.520327mSECRBilaspur, Chhattisgarh
64KLTRKalmitarX  02:20+4302:22+422m--2667.425300mSECRUsalapur, Chhattisgarh
65GTKGhutku  02:41+3002:43+322m--2675.421288mSECRBilaspur, Chhattisgarh
66USLUslapur (3)  03:05+1903:07+212m--2683.014272mSECRBilaspur, Chhattisgarh
67BSP•Bilaspur Junction (8)•  03:45+4-72691.6-271mSECRBilaspur, Chhattisgarh
Scroll to Top
Scroll to Bottom